Time;durP1;ratioP1;P1;durP2;ratioP2;P2;SDS_P1;SDS_P2;PMS_P1;PMS_P2;Temp;Humidity;BMP_temperature;BMP_pressure;BME280_temperature;BME280_humidity;BME280_pressure;Samples;Min_cycle;Max_cycle;Signal;HPM_P1;HPM_P2
2022/07/05 00:01:04;;;;;;;5.80;4.50;;;;;;;20.02;70.14;99488.33;109445;1274;22407;-57
2022/07/05 00:03:31;;;;;;;9.10;4.00;;;;;;;19.99;70.15;99488.50;109426;1274;22412;-56
2022/07/05 00:05:58;;;;;;;4.60;3.90;;;;;;;19.97;70.13;99491.27;109344;1274;138067;-56
2022/07/05 00:08:25;;;;;;;5.80;4.60;;;;;;;19.94;70.11;99492.84;109464;1274;23151;-56
2022/07/05 00:10:52;;;;;;;7.10;4.20;;;;;;;19.90;70.00;99492.34;109259;1274;140343;-56
2022/07/05 00:13:19;;;;;;;6.70;3.90;;;;;;;19.86;69.99;99493.61;109411;1274;23159;-56
2022/07/05 00:15:46;;;;;;;5.90;4.40;;;;;;;19.81;70.26;99493.27;109470;1274;23158;-56
2022/07/05 00:18:13;;;;;;;8.10;4.30;;;;;;;19.75;70.31;99492.21;109384;1274;140269;-56
2022/07/05 00:20:39;;;;;;;9.50;4.30;;;;;;;19.72;70.59;99493.59;109257;1276;22426;-56
2022/07/05 00:23:06;;;;;;;5.80;4.50;;;;;;;19.69;70.51;99490.34;109245;1276;138848;-57
2022/07/05 00:25:33;;;;;;;7.10;4.70;;;;;;;19.66;70.51;99490.52;109504;1274;23201;-56
2022/07/05 00:28:00;;;;;;;8.90;4.20;;;;;;;19.63;70.53;99492.62;109334;1274;23207;-56
2022/07/05 00:30:26;;;;;;;4.80;4.30;;;;;;;19.60;70.60;99490.45;109220;1274;139194;-55
2022/07/05 00:32:53;;;;;;;6.30;4.40;;;;;;;19.59;70.80;99491.41;109497;1274;23466;-55
2022/07/05 00:35:20;;;;;;;6.30;4.70;;;;;;;19.55;70.85;99496.77;109318;1272;138068;-56
2022/07/05 00:37:47;;;;;;;5.10;4.60;;;;;;;19.53;70.94;99496.48;109423;1274;22474;-56
2022/07/05 00:40:13;;;;;;;6.20;4.70;;;;;;;19.50;71.05;99499.32;109293;1274;22387;-56
2022/07/05 00:42:40;;;;;;;5.90;4.40;;;;;;;19.48;71.31;99498.31;109328;1274;138436;-56
2022/07/05 00:45:07;;;;;;;7.10;5.30;;;;;;;19.45;71.35;99497.95;109481;1274;22449;-55
2022/07/05 00:47:35;;;;;;;11.10;4.80;;;;;;;19.42;71.34;99498.52;109213;1274;138071;-55
2022/07/05 00:50:01;;;;;;;7.50;4.60;;;;;;;19.39;71.49;99500.31;109382;1274;22871;-56
2022/07/05 00:52:28;;;;;;;10.20;4.80;;;;;;;19.34;71.65;99497.16;109469;1274;22435;-56
2022/07/05 00:54:55;;;;;;;5.90;4.30;;;;;;;19.31;71.83;99498.65;109415;1274;22578;-55
2022/07/05 00:57:22;;;;;;;6.40;4.90;;;;;;;19.28;71.80;99497.30;109419;1274;23303;-56
2022/07/05 00:59:50;;;;;;;6.60;4.50;;;;;;;19.25;71.85;99499.29;109317;1274;138265;-55
2022/07/05 01:02:19;;;;;;;6.30;4.70;;;;;;;19.23;72.06;99505.31;109495;1274;22511;-55
2022/07/05 01:04:48;;;;;;;5.60;4.70;;;;;;;19.20;72.24;99504.15;109370;1274;138506;-56
2022/07/05 01:07:17;;;;;;;6.70;5.00;;;;;;;19.18;72.25;99503.35;108952;1274;555064;-56
2022/07/05 01:12:01;;;;;;;6.10;4.70;;;;;;;19.17;72.63;99496.35;101766;1310;545314;-56
2022/07/05 01:14:28;;;;;;;9.00;5.50;;;;;;;19.12;72.81;99496.00;103976;1287;24416;-56
2022/07/05 01:16:56;;;;;;;11.50;5.00;;;;;;;19.10;72.81;99493.66;103793;1290;139031;-55
2022/07/05 01:19:22;;;;;;;8.20;5.30;;;;;;;19.07;72.94;99492.23;104036;1287;22601;-55
2022/07/05 01:21:50;;;;;;;6.40;4.60;;;;;;;19.03;73.04;99488.30;103957;1287;22592;-56
2022/07/05 01:24:17;;;;;;;6.80;5.20;;;;;;;19.00;73.13;99489.45;103596;1290;137625;-56
2022/07/05 01:26:46;;;;;;;10.20;5.40;;;;;;;18.96;73.34;99493.02;103838;1287;303007;-57
2022/07/05 01:29:13;;;;;;;9.00;5.50;;;;;;;18.92;73.60;99491.39;108187;1286;139287;-57
2022/07/05 01:31:40;;;;;;;7.30;5.20;;;;;;;18.91;73.70;99490.14;108364;1283;22487;-57
2022/07/05 01:34:07;;;;;;;9.50;5.30;;;;;;;18.91;73.63;99492.52;108429;1283;22428;-57
2022/07/05 01:36:34;;;;;;;7.20;5.10;;;;;;;18.91;73.77;99495.83;108254;1286;139191;-58
2022/07/05 01:39:02;;;;;;;7.60;4.90;;;;;;;18.90;73.92;99494.44;108334;1286;23217;-58
2022/07/05 01:41:29;;;;;;;13.00;5.20;;;;;;;18.89;74.32;99493.38;108196;1286;137808;-58
2022/07/05 01:43:55;;;;;;;10.30;5.90;;;;;;;18.89;74.55;99494.38;108323;1286;22466;-58
2022/07/05 01:46:23;;;;;;;8.00;5.50;;;;;;;18.89;74.45;99495.73;108324;1287;22439;-58
2022/07/05 01:48:51;;;;;;;11.10;6.00;;;;;;;18.89;74.47;99493.37;108179;1286;139366;-58
2022/07/05 01:51:24;;;;;;;13.90;6.20;;;;;;;18.89;74.56;99494.86;108073;1286;22412;-58
2022/07/05 01:53:52;;;;;;;8.40;5.40;;;;;;;18.90;74.77;99498.79;107969;1286;137926;-58
2022/07/05 01:56:19;;;;;;;9.40;5.30;;;;;;;18.91;74.93;99496.94;108288;1285;22477;-57
2022/07/05 01:58:46;;;;;;;12.40;5.50;;;;;;;18.92;74.85;99495.41;107957;1287;139789;-57
2022/07/05 02:01:13;;;;;;;9.80;5.20;;;;;;;18.92;74.78;99496.03;108365;1285;22465;-58
2022/07/05 02:03:40;;;;;;;7.60;5.80;;;;;;;18.92;74.88;99501.39;108380;1285;22494;-58
2022/07/05 02:06:23;;;;;;;13.10;5.80;;;;;;;18.92;75.05;99498.73;108149;1287;140298;-58
2022/07/05 02:08:50;;;;;;;14.40;5.40;;;;;;;18.93;75.31;99494.80;107995;1289;22589;-57
2022/07/05 02:11:17;;;;;;;11.40;5.50;;;;;;;18.93;75.31;99500.59;107800;1288;139128;-58
2022/07/05 02:13:43;;;;;;;11.30;6.70;;;;;;;18.93;75.32;99503.96;108011;1289;23197;-58
2022/07/05 02:16:11;;;;;;;11.00;6.10;;;;;;;18.93;75.34;99504.02;107957;1288;22531;-56
2022/07/05 02:18:37;;;;;;;19.10;6.30;;;;;;;18.95;75.44;99505.91;107952;1289;139756;-57
2022/07/05 02:21:04;;;;;;;19.00;8.40;;;;;;;18.97;75.63;99507.06;107975;1287;22467;-56
2022/07/05 02:23:31;;;;;;;19.50;10.70;;;;;;;19.00;75.81;99502.92;107818;1288;138083;-56
2022/07/05 02:25:58;;;;;;;19.00;11.10;;;;;;;19.02;75.94;99505.97;108007;1287;22576;-56
2022/07/05 02:28:25;;;;;;;15.00;9.90;;;;;;;19.03;75.95;99502.18;107962;1289;22443;-56
2022/07/05 02:30:53;;;;;;;15.80;10.20;;;;;;;19.05;76.14;99501.55;107881;1289;137641;-57
2022/07/05 02:33:19;;;;;;;12.90;9.70;;;;;;;19.07;76.33;99498.91;108279;1286;22456;-56
2022/07/05 02:35:46;;;;;;;10.40;9.30;;;;;;;19.11;76.43;99498.55;108138;1286;138894;-56
2022/07/05 02:38:13;;;;;;;10.30;9.20;;;;;;;19.15;76.39;99498.58;107904;1288;22461;-57
2022/07/05 02:40:40;;;;;;;11.30;8.60;;;;;;;19.18;76.67;99500.20;108129;1286;139159;-56
2022/07/05 02:43:07;;;;;;;17.40;10.10;;;;;;;19.23;76.95;99493.39;108154;1286;22454;-56
2022/07/05 02:45:34;;;;;;;15.90;11.30;;;;;;;19.27;77.06;99493.61;108070;1287;23828;-56
2022/07/05 02:48:01;;;;;;;17.60;11.50;;;;;;;19.31;77.25;99498.20;107999;1286;139848;-56
2022/07/05 02:50:30;;;;;;;17.00;11.30;;;;;;;19.38;77.71;99499.65;108155;1287;22509;-56
2022/07/05 02:52:56;;;;;;;16.20;11.50;;;;;;;19.46;78.17;99503.21;107904;1286;140321;-56
2022/07/05 02:55:23;;;;;;;16.00;12.40;;;;;;;19.54;78.60;99504.98;108544;1283;22292;-57
2022/07/05 02:57:50;;;;;;;17.40;12.00;;;;;;;19.63;78.93;99505.17;108328;1284;22435;-57
2022/07/05 03:00:17;;;;;;;22.20;13.30;;;;;;;19.71;79.22;99504.50;108291;1284;139074;-57
2022/07/05 03:02:46;;;;;;;18.80;12.80;;;;;;;19.78;79.20;99506.77;108362;1284;22512;-57
2022/07/05 03:05:13;;;;;;;20.10;11.80;;;;;;;19.87;79.24;99505.06;108243;1284;139744;-57
2022/07/05 03:07:43;;;;;;;18.20;11.20;;;;;;;19.95;79.29;99503.64;108316;1284;22287;-56
2022/07/05 03:10:10;;;;;;;15.50;11.00;;;;;;;20.03;79.20;99506.02;108254;1284;22706;-57
2022/07/05 03:12:37;;;;;;;16.80;9.70;;;;;;;20.13;79.40;99504.90;108208;1284;139059;-57
2022/07/05 03:15:07;;;;;;;14.90;10.00;;;;;;;20.23;79.97;99498.48;108278;1286;22448;-56
2022/07/05 03:17:37;;;;;;;14.70;9.80;;;;;;;20.31;80.33;99498.73;108173;1286;138200;-57
2022/07/05 03:20:04;;;;;;;9.60;7.70;;;;;;;20.39;80.43;99500.77;108181;1286;23218;-57
2022/07/05 03:22:31;;;;;;;9.60;7.60;;;;;;;20.47;80.23;99505.80;108117;1285;139866;-57
2022/07/05 03:24:58;;;;;;;12.70;6.70;;;;;;;20.55;79.93;99509.21;108450;1283;22492;-57
2022/07/05 03:27:26;;;;;;;14.10;5.70;;;;;;;20.61;79.27;99512.38;108255;1286;22437;-57
2022/07/05 03:29:53;;;;;;;12.50;6.10;;;;;;;20.68;78.80;99511.98;108353;1284;138048;-57
2022/07/05 03:32:20;;;;;;;10.00;6.60;;;;;;;20.76;78.19;99513.86;108286;1285;22467;-57
2022/07/05 03:34:47;;;;;;;7.60;5.90;;;;;;;20.83;77.58;99513.29;108188;1285;140578;-57
2022/07/05 03:37:14;;;;;;;7.10;5.00;;;;;;;20.91;77.33;99517.70;108247;1284;22471;-57
2022/07/05 03:39:41;;;;;;;9.30;5.80;;;;;;;20.98;76.64;99515.57;108294;1284;23252;-57
2022/07/05 03:42:09;;;;;;;11.90;6.00;;;;;;;21.06;76.11;99511.10;108159;1284;138742;-57
2022/07/05 03:44:35;;;;;;;7.60;5.90;;;;;;;21.12;75.05;99510.60;108331;1285;22499;-57
2022/07/05 03:47:03;;;;;;;7.90;5.80;;;;;;;21.20;74.49;99512.36;104830;1287;140660;-56
2022/07/05 03:49:30;;;;;;;9.50;5.40;;;;;;;21.27;74.88;99516.51;103938;1286;22987;-57
2022/07/05 03:51:57;;;;;;;8.90;6.30;;;;;;;21.34;75.51;99514.17;104022;1284;22750;-56
2022/07/05 03:54:24;;;;;;;11.10;5.60;;;;;;;21.40;75.73;99519.05;108100;1286;137907;-56
2022/07/05 03:56:51;;;;;;;10.20;5.80;;;;;;;21.45;74.98;99517.78;108303;1286;22466;-56
2022/07/05 03:59:19;;;;;;;9.30;6.10;;;;;;;21.49;73.91;99516.30;108152;1285;139799;-56
2022/07/05 04:01:46;;;;;;;8.70;5.60;;;;;;;21.57;73.12;99517.88;108248;1286;22678;-57
2022/07/05 04:04:14;;;;;;;8.30;6.10;;;;;;;21.63;72.32;99518.31;108281;1285;23227;-57
2022/07/05 04:06:41;;;;;;;9.30;6.20;;;;;;;21.71;71.48;99516.88;108244;1284;137842;-57
2022/07/05 04:09:08;;;;;;;10.00;6.30;;;;;;;21.78;71.04;99515.84;108201;1286;23264;-57
2022/07/05 04:11:35;;;;;;;10.50;6.30;;;;;;;21.85;70.65;99514.41;108123;1285;139392;-57
2022/07/05 04:14:02;;;;;;;8.60;6.40;;;;;;;21.93;69.67;99516.04;108339;1284;22482;-57
2022/07/05 04:16:28;;;;;;;10.30;6.50;;;;;;;22.00;69.29;99517.78;108347;1284;22260;-57
2022/07/05 04:18:57;;;;;;;11.30;5.90;;;;;;;22.07;69.40;99514.30;108264;1285;22441;-58
2022/07/05 04:21:25;;;;;;;11.20;6.50;;;;;;;22.14;68.92;99512.99;108309;1284;23561;-57
2022/07/05 04:23:53;;;;;;;11.70;6.60;;;;;;;22.19;67.90;99514.48;108167;1286;138976;-57
2022/07/05 04:26:20;;;;;;;9.90;7.40;;;;;;;22.23;67.63;99510.20;108308;1283;23167;-57
2022/07/05 04:28:46;;;;;;;10.00;6.30;;;;;;;22.28;67.36;99511.08;108356;1283;138728;-57
2022/07/05 04:31:19;;;;;;;8.50;6.90;;;;;;;22.32;67.14;99511.59;108370;1283;22474;-57
2022/07/05 04:33:46;;;;;;;9.70;6.30;;;;;;;22.38;66.99;99509.31;108392;1284;24016;-57
2022/07/05 04:36:17;;;;;;;9.20;6.70;;;;;;;22.42;66.49;99506.33;108247;1284;139140;-57
2022/07/05 04:38:44;;;;;;;9.70;7.30;;;;;;;22.46;66.85;99502.70;108390;1284;22450;-58
2022/07/05 04:41:12;;;;;;;8.50;6.70;;;;;;;22.51;66.95;99502.30;108292;1284;138531;-57
2022/07/05 04:43:39;;;;;;;8.30;6.70;;;;;;;22.54;66.72;99500.84;108307;1284;22539;-57
2022/07/05 04:46:07;;;;;;;11.50;6.80;;;;;;;22.57;66.72;99502.01;108075;1286;22484;-57
2022/07/05 04:48:34;;;;;;;11.80;7.00;;;;;;;22.61;66.65;99501.91;108360;1283;138191;-57
2022/07/05 04:51:01;;;;;;;9.30;6.70;;;;;;;22.66;65.95;99498.66;108271;1284;22558;-57
2022/07/05 04:53:29;;;;;;;11.80;7.00;;;;;;;22.71;65.92;99502.71;108284;1283;138139;-58
2022/07/05 04:55:56;;;;;;;8.00;6.20;;;;;;;22.77;65.68;99501.98;108566;1283;22444;-56
2022/07/05 04:58:22;;;;;;;9.90;5.90;;;;;;;22.83;65.28;99503.58;108501;1283;22556;-57
2022/07/05 05:00:49;;;;;;;9.60;5.70;;;;;;;22.90;65.21;99497.98;108320;1284;137899;-57
2022/07/05 05:03:16;;;;;;;7.80;6.30;;;;;;;22.98;64.80;99499.20;108409;1283;22850;-57
2022/07/05 05:05:43;;;;;;;7.10;5.70;;;;;;;23.09;64.69;99505.02;108267;1284;139537;-56
2022/07/05 05:08:09;;;;;;;11.10;6.30;;;;;;;23.21;64.34;99500.69;108300;1283;22466;-57
2022/07/05 05:10:36;;;;;;;9.80;6.20;;;;;;;23.33;64.18;99499.98;108283;1283;137607;-56
2022/07/05 05:13:03;;;;;;;12.30;6.30;;;;;;;23.45;63.97;99501.29;108370;1284;23080;-57
2022/07/05 05:15:30;;;;;;;7.10;5.90;;;;;;;23.60;63.64;99503.52;108327;1284;22573;-57
2022/07/05 05:17:56;;;;;;;9.90;6.10;;;;;;;23.78;63.18;99504.99;108059;1285;137604;-57
2022/07/05 05:20:23;;;;;;;11.10;6.50;;;;;;;23.95;62.94;99505.42;108385;1284;22354;-57
2022/07/05 05:22:50;;;;;;;11.70;6.70;;;;;;;24.13;62.92;99508.16;108132;1284;138840;-57
2022/07/05 05:25:16;;;;;;;8.40;6.00;;;;;;;24.32;62.59;99508.55;108320;1284;23218;-57
2022/07/05 05:27:48;;;;;;;7.20;5.80;;;;;;;24.51;61.78;99511.45;109077;1278;22562;-57
2022/07/05 05:30:16;;;;;;;8.90;6.30;;;;;;;24.73;61.32;99512.84;108798;1279;138990;-57
2022/07/05 05:32:43;;;;;;;6.60;5.30;;;;;;;24.96;60.70;99512.77;108857;1280;22540;-56
2022/07/05 05:35:09;;;;;;;10.00;6.70;;;;;;;25.23;60.46;99517.27;108826;1280;138924;-56
2022/07/05 05:37:50;;;;;;;8.50;5.50;;;;;;;25.46;59.64;99516.41;108888;1280;22511;-56
2022/07/05 05:40:16;;;;;;;10.50;5.90;;;;;;;25.70;58.88;99513.24;108766;1281;22586;-56
2022/07/05 05:42:43;;;;;;;9.10;6.00;;;;;;;25.89;58.21;99510.23;108791;1279;137863;-56
2022/07/05 05:45:10;;;;;;;11.90;6.20;;;;;;;26.04;57.59;99511.80;108919;1279;23208;-56
2022/07/05 05:47:54;;;;;;;6.40;5.70;;;;;;;26.23;57.36;99514.25;108813;1280;138080;-56
2022/07/05 05:50:22;;;;;;;9.50;5.90;;;;;;;26.48;57.15;99512.08;108968;1280;22441;-56
2022/07/05 05:52:49;;;;;;;8.40;5.80;;;;;;;26.71;56.63;99511.79;108871;1279;137540;-56
2022/07/05 05:55:16;;;;;;;11.10;5.60;;;;;;;26.91;56.08;99508.94;108978;1280;22927;-56
2022/07/05 05:57:43;;;;;;;7.60;5.40;;;;;;;27.07;55.34;99508.66;108812;1280;23594;-56
2022/07/05 06:00:10;;;;;;;6.10;5.20;;;;;;;27.23;54.69;99508.11;108591;1280;139274;-56
2022/07/05 06:02:39;;;;;;;9.10;5.00;;;;;;;27.38;54.46;99506.33;108855;1280;22438;-56
2022/07/05 06:05:06;;;;;;;16.80;6.50;;;;;;;27.51;53.75;99506.80;108882;1280;138551;-56
2022/07/05 06:07:49;;;;;;;8.40;5.60;;;;;;;27.61;53.09;99503.50;108990;1278;23452;-56
2022/07/05 06:10:18;;;;;;;10.00;5.60;;;;;;;27.63;52.51;99504.27;109018;1279;23304;-56
2022/07/05 06:12:44;;;;;;;10.60;5.30;;;;;;;27.63;52.38;99506.98;108826;1280;139187;-56
2022/07/05 06:15:11;;;;;;;8.20;5.40;;;;;;;27.64;52.45;99505.15;109102;1277;22524;-56
2022/07/05 06:17:38;;;;;;;6.00;5.30;;;;;;;27.68;52.79;99510.35;108873;1280;138467;-56
2022/07/05 06:20:13;;;;;;;5.90;5.20;;;;;;;27.74;52.84;99509.56;108894;1280;22508;-56
2022/07/05 06:22:40;;;;;;;9.30;6.40;;;;;;;27.79;52.39;99507.83;108831;1280;139393;-57
2022/07/05 06:25:08;;;;;;;10.70;5.50;;;;;;;27.80;51.41;99506.17;108873;1279;22551;-48
2022/07/05 06:28:04;;;;;;;6.50;5.70;;;;;;;27.77;51.66;99507.47;108987;1280;23390;-58
2022/07/05 06:30:31;;;;;;;8.80;6.60;;;;;;;27.77;52.03;99503.55;108924;1279;137859;-56
2022/07/05 06:32:58;;;;;;;9.90;5.80;;;;;;;27.80;51.51;99503.14;108928;1280;22566;-57
2022/07/05 06:35:25;;;;;;;8.50;5.80;;;;;;;27.84;51.69;99505.10;108800;1280;139536;-57
2022/07/05 06:37:54;;;;;;;10.00;5.60;;;;;;;27.85;51.34;99499.91;108809;1280;24333;-57
2022/07/05 06:40:24;;;;;;;7.30;5.60;;;;;;;27.86;51.91;99503.60;108899;1280;22466;-57
2022/07/05 06:42:51;;;;;;;10.00;5.70;;;;;;;27.85;51.78;99502.55;108862;1279;138125;-58
2022/07/05 06:45:21;;;;;;;13.40;6.00;;;;;;;27.82;51.67;99499.80;108874;1280;22476;-58
2022/07/05 06:48:05;;;;;;;11.40;6.00;;;;;;;27.81;51.58;99504.83;108778;1279;137650;-58
2022/07/05 06:50:35;;;;;;;12.60;6.50;;;;;;;27.82;51.53;99504.84;108895;1280;23069;-58
2022/07/05 06:53:02;;;;;;;15.30;6.60;;;;;;;27.80;51.85;99505.13;108914;1278;137714;-58
2022/07/05 06:55:29;;;;;;;12.30;7.60;;;;;;;27.78;51.76;99500.63;108647;1281;23270;-58
2022/07/05 06:58:03;;;;;;;11.80;6.20;;;;;;;27.82;52.25;99506.84;108913;1280;22474;-59
2022/07/05 07:00:39;;;;;;;14.00;6.80;;;;;;;27.87;52.35;99507.48;108668;1281;137476;-58
2022/07/05 07:03:26;;;;;;;12.80;7.30;;;;;;;27.91;51.69;99504.98;109041;1278;22471;-57
2022/07/05 07:06:13;;;;;;;11.80;7.00;;;;;;;27.92;51.80;99508.52;108645;1281;139126;-58
2022/07/05 07:11:25;;;;;;;11.70;5.90;;;;;;;27.94;51.43;99514.48;108728;1280;139022;-58
2022/07/05 07:13:52;;;;;;;13.70;6.40;;;;;;;27.99;51.12;99513.05;108928;1280;22442;-57
2022/07/05 07:16:19;;;;;;;16.30;7.30;;;;;;;28.00;50.97;99512.65;108877;1280;22490;-57
2022/07/05 07:18:45;;;;;;;8.50;5.60;;;;;;;28.01;51.02;99507.30;108884;1280;137283;-56
2022/07/05 07:21:32;;;;;;;50.30;45.10;;;;;;;28.04;50.27;99506.89;107712;1280;22534;-59
2022/07/05 07:24:00;;;;;;;11.20;8.10;;;;;;;28.08;49.54;99502.64;106781;1280;138304;-59
2022/07/05 07:26:27;;;;;;;6.80;5.00;;;;;;;28.16;48.94;99506.42;106890;1279;22463;-58
2022/07/05 07:28:54;;;;;;;6.20;4.10;;;;;;;28.22;48.36;99508.48;106839;1280;138481;-58
2022/07/05 07:31:21;;;;;;;4.10;3.70;;;;;;;28.30;47.51;99509.40;106905;1280;22424;-58
2022/07/05 07:33:48;;;;;;;10.90;3.90;;;;;;;28.36;46.28;99511.02;106958;1280;23548;-59
2022/07/05 07:36:15;;;;;;;8.60;4.20;;;;;;;28.39;45.50;99511.55;106738;1280;139632;-59
2022/07/05 07:38:42;;;;;;;7.20;3.90;;;;;;;28.43;45.35;99509.52;106737;1282;22479;-58
2022/07/05 07:41:09;;;;;;;72.00;65.20;;;;;;;28.48;45.24;99507.69;106670;1280;139482;-60
2022/07/05 07:43:35;;;;;;;13.30;6.60;;;;;;;28.54;45.70;99509.77;106963;1280;25427;-59
2022/07/05 07:46:02;;;;;;;10.40;4.70;;;;;;;28.58;45.27;99511.51;106824;1281;22694;-58
2022/07/05 07:48:29;;;;;;;4.70;4.20;;;;;;;28.62;45.85;99510.84;106742;1280;139980;-59
2022/07/05 07:50:56;;;;;;;8.40;4.40;;;;;;;28.64;45.36;99508.07;106871;1280;22424;-58
2022/07/05 07:53:23;;;;;;;5.80;3.90;;;;;;;28.66;45.11;99502.09;106700;1280;140620;-58
2022/07/05 07:55:50;;;;;;;53.30;47.30;;;;;;;28.67;45.81;99498.75;107003;1280;22418;-60
2022/07/05 07:58:17;;;;;;;12.20;9.70;;;;;;;28.69;45.71;99501.27;106745;1280;23950;-60
2022/07/05 08:00:44;;;;;;;8.30;5.00;;;;;;;28.73;45.44;99498.49;106838;1280;139808;-60
2022/07/05 08:03:11;;;;;;;7.50;4.60;;;;;;;28.75;45.12;99497.80;106856;1280;23940;-59
2022/07/05 08:05:38;;;;;;;7.00;5.00;;;;;;;28.75;45.33;99492.51;106047;1280;137764;-59
2022/07/05 08:08:05;;;;;;;8.90;4.70;;;;;;;28.73;45.11;99491.20;103468;1280;23126;-58
2022/07/05 08:10:32;;;;;;;8.30;4.80;;;;;;;28.71;44.66;99489.41;103451;1280;139490;-59
2022/07/05 08:12:59;;;;;;;8.20;5.30;;;;;;;28.72;45.31;99488.70;103616;1280;22585;-58
2022/07/05 08:15:26;;;;;;;8.40;4.70;;;;;;;28.73;45.05;99485.02;103462;1280;22597;-58
2022/07/05 08:23:24;;;;;;;7.90;5.80;;;;;;;28.70;44.99;99481.32;103471;1280;138273;-59
2022/07/05 08:25:58;;;;;;;6.80;5.00;;;;;;;28.69;44.83;99472.49;103550;1280;22604;-60
2022/07/05 08:28:26;;;;;;;10.70;5.00;;;;;;;28.65;46.04;99473.31;103610;1280;23331;-59
2022/07/05 08:30:53;;;;;;;6.10;4.70;;;;;;;28.64;45.24;99471.61;103404;1280;138350;-59
2022/07/05 08:33:20;;;;;;;7.80;4.90;;;;;;;28.65;44.10;99470.91;103497;1280;24041;-59
2022/07/05 08:35:47;;;;;;;12.00;4.50;;;;;;;28.66;45.08;99464.44;103576;1280;139784;-59
2022/07/05 08:38:14;;;;;;;7.40;5.30;;;;;;;28.71;44.14;99472.10;103451;1280;22595;-59
2022/07/05 08:40:44;;;;;;;9.00;4.90;;;;;;;28.75;44.70;99475.13;103382;1280;139725;-59
2022/07/05 08:43:11;;;;;;;7.30;4.10;;;;;;;28.78;44.55;99474.63;103295;1283;23827;-59
2022/07/05 08:45:37;;;;;;;8.10;4.90;;;;;;;28.81;44.51;99476.52;103657;1280;27327;-59
2022/07/05 08:48:05;;;;;;;8.80;4.60;;;;;;;28.82;44.59;99477.36;103403;1280;137522;-59
2022/07/05 08:50:33;;;;;;;6.50;4.60;;;;;;;28.83;44.43;99480.81;106766;1281;22472;-60
2022/07/05 08:53:00;;;;;;;6.90;4.20;;;;;;;28.84;43.40;99478.10;106599;1282;139134;-60
2022/07/05 08:55:27;;;;;;;72.90;62.90;;;;;;;28.86;43.34;99477.29;106636;1280;23880;-62
2022/07/05 08:57:54;;;;;;;17.20;11.20;;;;;;;28.86;43.79;99481.14;106865;1280;22595;-64
2022/07/05 09:00:21;;;;;;;10.70;5.90;;;;;;;28.88;44.06;99479.80;106742;1279;137866;-59
2022/07/05 09:02:49;;;;;;;8.00;4.70;;;;;;;28.86;43.87;99477.53;106686;1280;22405;-60
2022/07/05 09:05:17;;;;;;;9.10;4.30;;;;;;;28.85;44.02;99475.84;106604;1280;138744;-59
2022/07/05 09:07:49;;;;;;;8.10;4.20;;;;;;;28.88;44.07;99472.27;106835;1279;22464;-59
2022/07/05 09:10:16;;;;;;;8.70;4.70;;;;;;;28.90;43.81;99474.47;106722;1280;22482;-59
2022/07/05 09:12:43;;;;;;;6.30;4.70;;;;;;;28.94;44.38;99479.01;106731;1280;139004;-58
2022/07/05 09:15:11;;;;;;;7.10;4.70;;;;;;;28.98;43.90;99481.07;106689;1282;22405;-59
2022/07/05 09:17:44;;;;;;;63.40;57.60;;;;;;;29.02;43.22;99478.45;106707;1280;138277;-62
2022/07/05 09:20:18;;;;;;;28.10;23.90;;;;;;;29.00;43.60;99474.75;106933;1280;22441;-66
2022/07/05 09:22:52;;;;;;;7.10;6.30;;;;;;;28.97;43.60;99473.11;106804;1280;138741;-60
2022/07/05 09:25:24;;;;;;;4.90;4.50;;;;;;;28.91;43.41;99476.00;106881;1280;22458;-60
2022/07/05 09:27:53;;;;;;;5.30;4.00;;;;;;;28.85;43.06;99478.48;106892;1280;22447;-60
2022/07/05 09:30:24;;;;;;;4.90;4.20;;;;;;;28.80;42.82;99480.75;106853;1280;139219;-60
2022/07/05 09:33:04;;;;;;;6.00;4.30;;;;;;;28.75;42.61;99478.41;106971;1280;23662;-60
2022/07/05 09:35:31;;;;;;;8.80;4.20;;;;;;;28.73;43.11;99481.49;106782;1280;139240;-60
2022/07/05 09:37:58;;;;;;;4.40;3.90;;;;;;;28.70;43.18;99481.88;106908;1280;22510;-59
2022/07/05 09:40:25;;;;;;;4.00;3.60;;;;;;;28.67;42.50;99484.33;106670;1280;23587;-61
2022/07/05 09:42:52;;;;;;;4.80;4.20;;;;;;;28.67;42.52;99482.73;106794;1280;137682;-64
2022/07/05 09:45:24;;;;;;;9.70;4.90;;;;;;;28.70;43.33;99478.91;107233;1276;23043;-61
2022/07/05 09:47:53;;;;;;;6.00;5.00;;;;;;;28.75;43.49;99477.99;107077;1276;140011;-63
2022/07/05 09:50:40;;;;;;;6.10;4.40;;;;;;;28.81;42.33;99476.69;107175;1277;22515;-62
2022/07/05 09:53:27;;;;;;;5.50;4.20;;;;;;;28.90;42.44;99472.21;107156;1276;139172;-62
2022/07/05 09:56:04;;;;;;;4.50;4.10;;;;;;;28.97;43.23;99475.45;107091;1277;22402;-59
2022/07/05 09:58:32;;;;;;;6.80;5.00;;;;;;;29.04;43.28;99472.30;107095;1277;137410;-62
2022/07/05 10:00:59;;;;;;;7.90;4.20;;;;;;;29.11;43.45;99471.28;107183;1276;23775;-61
2022/07/05 10:03:26;;;;;;;7.90;4.60;;;;;;;29.18;42.28;99471.99;107214;1277;23381;-62
2022/07/05 10:05:53;;;;;;;9.10;5.00;;;;;;;29.24;41.97;99468.53;106954;1276;138605;-63
2022/07/05 10:08:25;;;;;;;197.00;176.90;;;;;;;29.29;43.15;99472.19;107183;1277;23447;-60
2022/07/05 10:10:52;;;;;;;160.90;143.50;;;;;;;29.35;43.45;99468.48;106940;1277;139116;-62
2022/07/05 10:13:19;;;;;;;21.60;19.20;;;;;;;29.39;43.43;99465.84;107053;1276;23092;-61
2022/07/05 10:15:46;;;;;;;6.80;6.10;;;;;;;29.46;43.17;99466.29;107240;1276;23418;-59
2022/07/05 10:18:15;;;;;;;7.70;5.10;;;;;;;29.55;43.13;99466.48;107006;1276;138055;-59
2022/07/05 10:20:43;;;;;;;5.10;4.40;;;;;;;29.64;42.62;99467.12;107128;1277;23460;-59
2022/07/05 10:23:15;;;;;;;5.20;4.30;;;;;;;29.73;42.24;99462.38;107001;1276;137502;-58
2022/07/05 10:25:44;;;;;;;7.20;4.30;;;;;;;29.79;41.38;99456.41;107213;1276;22400;-59
2022/07/05 10:28:11;;;;;;;6.30;4.30;;;;;;;29.85;40.79;99456.23;107100;1277;22503;-58
2022/07/05 10:30:38;;;;;;;7.50;4.50;;;;;;;29.88;41.09;99452.14;107079;1277;138757;-59
2022/07/05 10:33:06;;;;;;;10.40;4.80;;;;;;;29.88;39.89;99448.23;107162;1277;23527;-58
2022/07/05 10:35:33;;;;;;;5.80;4.60;;;;;;;29.87;40.01;99446.21;107015;1277;139743;-59
2022/07/05 10:38:01;;;;;;;5.20;4.40;;;;;;;29.89;40.01;99451.91;107177;1277;22432;-58
2022/07/05 10:40:29;;;;;;;5.50;4.10;;;;;;;29.91;39.67;99447.92;107096;1277;23786;-59
2022/07/05 10:43:01;;;;;;;5.30;3.90;;;;;;;29.94;39.84;99449.16;107097;1276;22414;-59
2022/07/05 10:45:35;;;;;;;5.10;4.50;;;;;;;29.96;38.69;99443.73;107177;1276;22425;-57
2022/07/05 10:48:11;;;;;;;6.50;5.50;;;;;;;29.97;38.55;99442.70;106961;1276;138556;-58
2022/07/05 10:50:48;;;;;;;6.30;4.30;;;;;;;29.97;39.42;99439.33;107087;1276;22494;-58
2022/07/05 10:53:16;;;;;;;3.80;3.50;;;;;;;30.01;39.09;99445.87;107038;1277;139284;-58
2022/07/05 10:56:07;;;;;;;5.70;4.00;;;;;;;30.05;38.38;99443.41;107161;1276;22417;-57
2022/07/05 10:58:37;;;;;;;6.10;4.10;;;;;;;30.10;38.05;99439.43;106778;1277;140065;-58
2022/07/05 11:01:19;;;;;;;64.80;57.90;;;;;;;30.11;38.25;99435.84;106867;1278;25250;-62
2022/07/05 11:04:00;;;;;;;28.80;25.70;;;;;;;30.11;39.14;99433.27;107134;1276;22612;-64
2022/07/05 11:06:30;;;;;;;7.80;5.40;;;;;;;30.09;37.96;99426.10;106966;1276;140696;-65
2022/07/05 11:09:00;;;;;;;7.30;4.60;;;;;;;30.06;38.26;99428.08;107168;1276;22693;-62
2022/07/05 11:11:35;;;;;;;5.00;4.40;;;;;;;30.01;38.84;99429.48;107035;1277;139234;-62
2022/07/05 11:14:29;;;;;;;6.50;4.40;;;;;;;29.99;39.97;99430.37;107207;1277;22568;-66
2022/07/05 11:17:09;;;;;;;5.50;3.90;;;;;;;29.94;39.43;99421.86;107078;1277;139234;-59
2022/07/05 11:20:11;;;;;;;5.70;3.90;;;;;;;29.91;40.48;99423.60;107178;1277;23050;-62
2022/07/05 11:22:57;;;;;;;8.80;4.80;;;;;;;29.86;40.54;99422.36;107095;1277;138138;-60
2022/07/05 11:25:24;;;;;;;47.50;42.60;;;;;;;29.81;40.81;99421.61;107105;1277;22462;-59
2022/07/05 11:28:24;;;;;;;8.70;5.50;;;;;;;29.76;41.14;99420.27;107075;1277;22411;-58
2022/07/05 11:30:53;;;;;;;10.50;4.70;;;;;;;29.73;41.34;99421.30;107079;1277;139088;-57
2022/07/05 11:33:32;;;;;;;14.40;5.70;;;;;;;29.68;41.10;99420.30;107224;1277;22477;-57
2022/07/05 11:35:59;;;;;;;9.40;5.60;;;;;;;29.65;41.95;99424.44;107150;1274;138845;-58